createdAt,value
2022-12-20T00:00:49.928Z,2.59
2022-12-20T00:02:21.465Z,2.28
2022-12-20T00:04:09.919Z,2.20
2022-12-20T00:05:56.479Z,2.41
2022-12-20T00:07:28.358Z,2.19
2022-12-20T00:09:09.636Z,2.23
2022-12-20T00:10:41.056Z,2.23
2022-12-20T00:12:12.519Z,1.98
2022-12-20T00:13:44.111Z,2.23
2022-12-20T00:15:15.754Z,2.38
2022-12-20T00:16:48.303Z,2.32
2022-12-20T00:18:19.749Z,2.13
2022-12-20T00:19:56.333Z,1.87
2022-12-20T00:21:28.106Z,2.15
2022-12-20T00:22:59.670Z,2.22
2022-12-20T00:24:31.086Z,1.96
2022-12-20T00:26:02.523Z,1.90
2022-12-20T00:27:34.100Z,1.73
2022-12-20T00:29:05.660Z,1.90
2022-12-20T00:30:37.230Z,1.97
2022-12-20T00:32:08.988Z,1.78
2022-12-20T00:33:40.618Z,2.16
2022-12-20T00:35:11.937Z,1.93
2022-12-20T00:36:43.383Z,1.92
2022-12-20T00:38:14.735Z,2.08
2022-12-20T00:39:46.088Z,2.05
2022-12-20T00:41:19.000Z,2.02
2022-12-20T00:42:50.522Z,1.90
2022-12-20T00:44:22.022Z,1.82
2022-12-20T00:45:53.563Z,2.07
2022-12-20T00:47:24.983Z,1.67
2022-12-20T00:48:56.463Z,1.88
2022-12-20T00:50:28.010Z,2.07
2022-12-20T00:51:59.367Z,2.04
2022-12-20T00:53:30.718Z,2.26
2022-12-20T00:55:02.453Z,1.77
2022-12-20T00:56:34.281Z,1.92
2022-12-20T00:58:05.693Z,1.95
2022-12-20T00:59:38.542Z,1.91
2022-12-20T01:01:10.108Z,2.01
2022-12-20T01:02:41.618Z,2.12
2022-12-20T01:04:18.067Z,1.89
2022-12-20T01:05:49.591Z,2.24
2022-12-20T01:07:21.442Z,1.95
2022-12-20T01:08:52.956Z,1.86
2022-12-20T01:10:24.421Z,1.94
2022-12-20T01:11:55.924Z,1.93
2022-12-20T01:13:27.425Z,1.62
2022-12-20T01:14:58.784Z,1.92
2022-12-20T01:16:30.262Z,1.98
2022-12-20T01:18:01.633Z,2.13
2022-12-20T01:19:33.275Z,1.95
2022-12-20T01:21:04.831Z,1.94
2022-12-20T01:22:36.194Z,1.81
2022-12-20T01:24:12.541Z,1.90
2022-12-20T01:25:44.085Z,2.25
2022-12-20T01:27:16.285Z,2.02
2022-12-20T01:28:47.918Z,2.22
2022-12-20T01:30:19.559Z,2.10
2022-12-20T01:31:51.071Z,2.14
2022-12-20T01:33:22.839Z,2.14
2022-12-20T01:34:54.308Z,2.26
2022-12-20T01:36:25.950Z,1.97
2022-12-20T01:37:57.508Z,2.11
2022-12-20T01:39:28.811Z,2.33
2022-12-20T01:41:00.471Z,1.97
2022-12-20T01:42:31.994Z,1.97
2022-12-20T01:44:03.659Z,1.90
2022-12-20T01:45:35.178Z,2.03
2022-12-20T01:47:06.736Z,2.14
2022-12-20T01:48:38.478Z,2.02
2022-12-20T01:50:10.246Z,2.10
2022-12-20T01:51:41.713Z,1.99
2022-12-20T01:53:13.546Z,2.08
2022-12-20T01:54:45.178Z,2.02
2022-12-20T01:56:16.476Z,1.89
2022-12-20T01:57:47.915Z,2.02
2022-12-20T01:59:19.272Z,2.10
2022-12-20T02:00:50.733Z,1.98
2022-12-20T02:02:22.184Z,2.06
2022-12-20T02:03:53.893Z,1.86
2022-12-20T02:05:25.261Z,1.94
2022-12-20T02:06:57.575Z,2.01
2022-12-20T02:08:29.401Z,1.86
2022-12-20T02:10:00.856Z,1.83
2022-12-20T02:11:32.292Z,1.86
2022-12-20T02:13:03.753Z,1.80
2022-12-20T02:14:35.295Z,1.60
2022-12-20T02:16:07.158Z,1.99
2022-12-20T02:17:38.883Z,1.95
2022-12-20T02:19:10.675Z,1.97
2022-12-20T02:20:42.535Z,1.81
2022-12-20T02:22:14.034Z,2.23
2022-12-20T02:23:45.413Z,2.11
2022-12-20T02:25:17.080Z,2.05
2022-12-20T02:26:48.610Z,2.17
2022-12-20T02:28:19.928Z,2.11
2022-12-20T02:29:51.377Z,2.18
2022-12-20T02:31:22.744Z,2.38
2022-12-20T02:32:54.162Z,2.12
2022-12-20T02:34:25.486Z,2.10
2022-12-20T02:35:57.135Z,2.16
2022-12-20T02:37:28.774Z,2.08
2022-12-20T02:39:00.216Z,2.35
2022-12-20T02:40:31.751Z,2.31
2022-12-20T02:42:03.195Z,2.05
2022-12-20T02:43:34.565Z,2.22
2022-12-20T02:45:06.006Z,2.42
2022-12-20T02:46:37.551Z,2.00
2022-12-20T02:48:09.577Z,2.22
2022-12-20T02:49:41.060Z,2.35
2022-12-20T02:51:12.359Z,2.33
2022-12-20T02:52:43.666Z,2.06
2022-12-20T02:54:15.014Z,2.11
2022-12-20T02:55:46.435Z,2.28
2022-12-20T02:57:17.965Z,2.13
2022-12-20T02:58:49.350Z,2.33
2022-12-20T03:00:20.717Z,2.40
2022-12-20T03:01:52.168Z,2.36
2022-12-20T03:03:23.946Z,1.98
2022-12-20T03:04:55.836Z,2.38
2022-12-20T03:06:27.319Z,2.35
2022-12-20T03:07:59.262Z,2.03
2022-12-20T03:09:30.824Z,2.22
2022-12-20T03:11:02.734Z,2.28
2022-12-20T03:12:34.356Z,2.52
2022-12-20T03:14:05.769Z,2.40
2022-12-20T03:15:37.144Z,2.09
2022-12-20T03:17:08.570Z,2.23
2022-12-20T03:18:40.112Z,2.27
2022-12-20T03:20:11.613Z,2.33
2022-12-20T03:21:43.066Z,2.25
2022-12-20T03:23:14.408Z,2.45
2022-12-20T03:24:45.909Z,2.29
2022-12-20T03:26:17.454Z,2.44
2022-12-20T03:27:53.986Z,2.30
2022-12-20T03:29:35.364Z,2.34
2022-12-20T03:31:07.064Z,2.30
2022-12-20T03:32:38.821Z,2.23
2022-12-20T03:34:14.508Z,2.62
2022-12-20T03:36:03.345Z,1.99
2022-12-20T03:37:34.992Z,2.11
2022-12-20T03:39:06.358Z,2.25
2022-12-20T03:40:37.652Z,2.25
2022-12-20T03:42:44.080Z,2.12
2022-12-20T03:44:15.837Z,2.51
2022-12-20T03:45:47.450Z,2.63
2022-12-20T03:47:19.164Z,2.53
2022-12-20T03:49:07.747Z,2.44
2022-12-20T03:50:39.173Z,2.25
2022-12-20T03:52:10.818Z,2.43
2022-12-20T03:54:03.746Z,2.39
2022-12-20T03:55:44.974Z,2.44
2022-12-20T03:57:17.030Z,2.54
2022-12-20T03:58:49.320Z,2.83
2022-12-20T04:00:42.105Z,2.49
2022-12-20T04:02:13.611Z,2.45
2022-12-20T04:04:05.402Z,2.45
2022-12-20T04:05:37.931Z,2.30
2022-12-20T04:07:20.005Z,2.27
2022-12-20T04:09:11.520Z,2.36
2022-12-20T04:11:30.150Z,2.48
2022-12-20T04:13:01.776Z,2.64
2022-12-20T04:14:33.156Z,2.27
2022-12-20T04:16:04.624Z,2.48
2022-12-20T04:17:37.448Z,2.47
2022-12-20T04:19:09.122Z,2.62
2022-12-20T04:20:40.611Z,2.26
2022-12-20T04:22:12.016Z,2.31
2022-12-20T04:23:43.420Z,2.60
2022-12-20T04:25:14.952Z,2.10
2022-12-20T04:26:46.364Z,2.28
2022-12-20T04:28:17.798Z,2.34
2022-12-20T04:29:49.480Z,2.52
2022-12-20T04:31:24.192Z,2.16
2022-12-20T04:32:55.953Z,2.46
2022-12-20T04:34:27.352Z,2.29
2022-12-20T04:35:58.688Z,2.23
2022-12-20T04:37:30.151Z,2.55
2022-12-20T04:39:01.668Z,2.39
2022-12-20T04:40:33.121Z,2.17
2022-12-20T04:42:05.576Z,2.33
2022-12-20T04:43:42.757Z,2.40
2022-12-20T04:45:14.199Z,2.10
2022-12-20T04:46:45.708Z,2.67
2022-12-20T04:48:54.733Z,2.36
2022-12-20T04:50:27.386Z,2.53
2022-12-20T04:51:58.823Z,2.53
2022-12-20T04:53:30.386Z,2.37
2022-12-20T04:55:01.747Z,2.44
2022-12-20T04:56:33.079Z,2.80
2022-12-20T04:58:07.732Z,2.90
2022-12-20T04:59:39.416Z,2.20
2022-12-20T05:01:10.817Z,2.34
2022-12-20T05:02:42.314Z,2.29
2022-12-20T05:04:14.097Z,2.27
2022-12-20T05:05:45.600Z,2.77
2022-12-20T05:07:16.922Z,2.75
2022-12-20T05:08:48.348Z,2.55
2022-12-20T05:10:19.863Z,2.50
2022-12-20T05:11:51.193Z,2.40
2022-12-20T05:13:22.488Z,2.70
2022-12-20T05:14:53.793Z,2.41
2022-12-20T05:16:25.292Z,2.35
2022-12-20T05:18:02.909Z,2.66
2022-12-20T05:19:34.278Z,2.52
2022-12-20T05:21:05.641Z,2.68
2022-12-20T05:22:42.078Z,2.93
2022-12-20T05:24:13.803Z,2.41
2022-12-20T05:25:45.248Z,3.00
2022-12-20T05:27:16.530Z,3.06
2022-12-20T05:28:48.033Z,2.95
2022-12-20T05:30:24.447Z,3.13
2022-12-20T05:31:55.902Z,2.86
2022-12-20T05:33:33.649Z,3.07
2022-12-20T05:35:05.395Z,3.13
2022-12-20T05:36:36.718Z,2.96
2022-12-20T05:38:08.085Z,3.20
2022-12-20T05:39:39.594Z,2.98
2022-12-20T05:41:10.952Z,2.84
2022-12-20T05:42:42.247Z,3.28
2022-12-20T05:44:13.653Z,2.72
2022-12-20T05:45:44.972Z,2.76
2022-12-20T05:47:16.257Z,3.13
2022-12-20T05:48:47.688Z,2.97
2022-12-20T05:50:19.431Z,3.15
2022-12-20T05:51:50.833Z,2.86
2022-12-20T05:53:22.274Z,2.96
2022-12-20T05:54:53.656Z,2.84
2022-12-20T05:56:24.995Z,3.33
2022-12-20T06:00:23.836Z,2.85
2022-12-20T06:01:55.319Z,2.92
2022-12-20T06:03:26.738Z,3.08
2022-12-20T06:04:58.260Z,2.75
2022-12-20T06:06:30.016Z,2.85
2022-12-20T06:08:01.557Z,2.81
2022-12-20T06:09:32.859Z,2.89
2022-12-20T06:11:04.523Z,2.96
2022-12-20T06:12:35.810Z,2.99
2022-12-20T06:14:07.087Z,2.91
2022-12-20T06:15:38.597Z,2.76
2022-12-20T06:17:09.950Z,2.91
2022-12-20T06:18:41.422Z,2.92
2022-12-20T06:20:13.378Z,2.81
2022-12-20T06:21:45.007Z,2.61
2022-12-20T06:23:16.545Z,2.73
2022-12-20T06:24:48.831Z,2.47
2022-12-20T06:26:20.423Z,2.71
2022-12-20T06:27:52.232Z,2.61
2022-12-20T06:29:23.881Z,2.93
2022-12-20T06:30:55.293Z,2.57
2022-12-20T06:32:26.605Z,2.62
2022-12-20T06:33:57.934Z,2.79
2022-12-20T06:35:29.526Z,2.64
2022-12-20T06:37:00.959Z,2.94
2022-12-20T06:38:32.720Z,2.59
2022-12-20T06:40:04.365Z,2.90
2022-12-20T06:41:36.170Z,2.58
2022-12-20T06:43:07.404Z,2.53
2022-12-20T06:44:39.031Z,2.69
2022-12-20T06:46:10.401Z,2.56
2022-12-20T06:47:42.017Z,2.66
2022-12-20T06:49:13.534Z,2.77
2022-12-20T06:50:49.213Z,2.59
2022-12-20T06:52:23.839Z,2.62
2022-12-20T06:53:57.429Z,2.56
2022-12-20T06:55:29.207Z,2.55
2022-12-20T06:57:06.253Z,2.53
2022-12-20T06:58:47.724Z,2.54
2022-12-20T07:00:19.191Z,2.70
2022-12-20T07:01:51.160Z,2.49
2022-12-20T07:03:23.047Z,2.42
2022-12-20T07:04:54.802Z,2.52
2022-12-20T07:06:26.459Z,2.60
2022-12-20T07:07:57.947Z,2.36
2022-12-20T07:09:29.359Z,2.43
2022-12-20T07:11:00.806Z,2.50
2022-12-20T07:12:32.290Z,2.37
2022-12-20T07:14:04.099Z,2.47
2022-12-20T07:15:35.670Z,2.49
2022-12-20T07:17:07.052Z,2.50
2022-12-20T07:18:38.615Z,2.56
2022-12-20T07:20:13.326Z,2.32
2022-12-20T07:21:45.720Z,2.28
2022-12-20T07:23:17.326Z,2.28
2022-12-20T07:24:48.866Z,2.38
2022-12-20T07:26:20.286Z,2.26
2022-12-20T07:27:51.808Z,2.33
2022-12-20T07:29:23.143Z,2.00
2022-12-20T07:30:54.761Z,1.99
2022-12-20T07:32:26.266Z,2.16
2022-12-20T07:33:57.830Z,2.37
2022-12-20T07:35:29.121Z,2.12
2022-12-20T07:37:00.473Z,2.42
2022-12-20T07:38:31.835Z,2.21
2022-12-20T07:40:03.277Z,2.04
2022-12-20T07:41:34.661Z,2.33
2022-12-20T07:43:05.965Z,2.19
2022-12-20T07:44:37.638Z,2.12
2022-12-20T07:46:09.312Z,1.93
2022-12-20T07:47:40.754Z,2.12
2022-12-20T07:49:12.460Z,2.26
2022-12-20T07:51:03.745Z,2.15
2022-12-20T07:52:35.090Z,2.25
2022-12-20T07:54:06.417Z,2.30
2022-12-20T07:55:37.737Z,2.24
2022-12-20T07:57:09.179Z,1.65
2022-12-20T07:58:40.522Z,2.05
2022-12-20T08:00:12.299Z,2.45
2022-12-20T08:01:43.964Z,2.10
2022-12-20T08:03:15.583Z,2.24
2022-12-20T08:04:47.265Z,2.17
2022-12-20T08:06:18.630Z,2.17
2022-12-20T08:07:58.755Z,2.17
2022-12-20T08:09:30.790Z,2.30
2022-12-20T08:11:22.383Z,2.08
2022-12-20T08:12:59.461Z,1.88
2022-12-20T08:14:30.818Z,1.91
2022-12-20T08:16:03.484Z,1.94
2022-12-20T08:17:35.091Z,2.06
2022-12-20T08:19:06.371Z,2.12
2022-12-20T08:20:37.846Z,2.01
2022-12-20T08:22:09.308Z,1.94
2022-12-20T08:23:40.581Z,2.10
2022-12-20T08:25:12.099Z,2.02
2022-12-20T08:26:43.451Z,2.09
2022-12-20T08:28:14.975Z,1.92
2022-12-20T08:29:46.531Z,2.08
2022-12-20T08:31:18.106Z,2.09
2022-12-20T08:32:49.798Z,2.11
2022-12-20T08:34:21.331Z,1.79
2022-12-20T08:35:57.699Z,2.09
2022-12-20T08:37:29.117Z,2.08
2022-12-20T08:39:00.562Z,5.03
2022-12-20T08:40:32.122Z,2.78
2022-12-20T08:42:03.712Z,2.04
2022-12-20T08:43:35.019Z,2.06
2022-12-20T08:45:06.435Z,1.97
2022-12-20T08:46:38.427Z,2.01
2022-12-20T08:48:10.002Z,1.98
2022-12-20T08:49:47.338Z,1.81
2022-12-20T08:51:19.517Z,2.06
2022-12-20T08:53:00.884Z,1.88
2022-12-20T08:54:32.453Z,1.74
2022-12-20T08:56:03.743Z,2.06
2022-12-20T08:57:35.033Z,1.78
2022-12-20T08:59:06.546Z,2.04
2022-12-20T09:00:37.918Z,1.91
2022-12-20T09:02:28.294Z,1.81
2022-12-20T09:04:02.404Z,1.82
2022-12-20T09:05:34.075Z,1.84
2022-12-20T09:07:27.897Z,1.96
2022-12-20T09:09:29.765Z,1.87
2022-12-20T09:11:15.896Z,1.68
2022-12-20T09:12:47.767Z,1.73
2022-12-20T09:14:19.347Z,1.82
2022-12-20T09:15:51.661Z,1.69
2022-12-20T09:17:23.803Z,1.63
2022-12-20T09:19:21.356Z,2.03
2022-12-20T09:21:02.339Z,1.80
2022-12-20T09:22:43.730Z,1.92
2022-12-20T09:24:47.537Z,1.97
2022-12-20T09:26:19.545Z,1.48
2022-12-20T09:27:51.144Z,1.80
2022-12-20T09:29:28.453Z,1.86
2022-12-20T09:31:01.180Z,1.80
2022-12-20T09:32:32.680Z,1.84
2022-12-20T09:34:04.096Z,1.74
2022-12-20T09:35:45.471Z,1.87
2022-12-20T09:39:38.233Z,1.58
2022-12-20T09:41:10.269Z,1.81
2022-12-20T09:43:02.111Z,1.88
2022-12-20T09:44:33.752Z,1.80
2022-12-20T09:46:05.251Z,1.81
2022-12-20T09:48:07.903Z,1.80
2022-12-20T09:49:39.205Z,1.76
2022-12-20T09:51:20.623Z,2.01
2022-12-20T09:52:52.298Z,1.77
2022-12-20T09:54:23.864Z,1.93
2022-12-20T09:55:55.336Z,1.66
2022-12-20T09:57:26.728Z,1.60
2022-12-20T09:58:58.184Z,1.96
2022-12-20T10:00:29.757Z,2.07
2022-12-20T10:02:35.470Z,1.96
2022-12-20T10:04:27.263Z,1.75
2022-12-20T10:06:21.191Z,2.06
2022-12-20T10:08:24.068Z,1.83
2022-12-20T10:10:11.277Z,1.71
2022-12-20T10:12:13.340Z,1.83
2022-12-20T10:13:56.160Z,1.58
2022-12-20T10:15:27.853Z,1.65
2022-12-20T10:16:59.893Z,1.94
2022-12-20T10:18:41.502Z,1.68
2022-12-20T10:20:19.388Z,1.60
2022-12-20T10:21:50.981Z,1.52
2022-12-20T10:23:26.571Z,1.69
2022-12-20T10:25:03.471Z,1.55
2022-12-20T10:26:45.148Z,1.60
2022-12-20T10:28:16.543Z,1.63
2022-12-20T10:30:08.316Z,1.68
2022-12-20T10:32:10.004Z,1.32
2022-12-20T10:34:06.426Z,1.85
2022-12-20T10:35:37.922Z,1.72
2022-12-20T10:37:09.365Z,1.94
2022-12-20T10:38:46.008Z,2.30
2022-12-20T10:42:29.213Z,1.46
2022-12-20T10:44:10.561Z,1.49
2022-12-20T10:46:09.406Z,1.63
2022-12-20T10:47:41.107Z,1.54
2022-12-20T10:49:13.345Z,1.72
2022-12-20T10:50:44.740Z,1.42
2022-12-20T10:52:16.690Z,1.84
2022-12-20T10:53:48.647Z,1.71
2022-12-20T10:55:20.387Z,1.57
2022-12-20T10:56:52.100Z,1.67
2022-12-20T10:58:23.436Z,1.53
2022-12-20T11:00:19.973Z,1.41
2022-12-20T11:01:51.682Z,1.71
2022-12-20T11:03:34.190Z,1.62
2022-12-20T11:06:08.495Z,1.68
2022-12-20T11:07:43.635Z,1.33
2022-12-20T11:09:22.086Z,1.20
2022-12-20T11:11:03.814Z,1.41
2022-12-20T11:12:35.371Z,1.68
2022-12-20T11:14:06.717Z,1.59
2022-12-20T11:15:38.060Z,1.59
2022-12-20T11:17:09.501Z,1.51
2022-12-20T11:18:41.022Z,1.66
2022-12-20T11:20:19.146Z,1.63
2022-12-20T11:22:00.782Z,1.52
2022-12-20T11:23:32.369Z,1.51
2022-12-20T11:25:04.412Z,1.51
2022-12-20T11:26:35.749Z,1.64
2022-12-20T11:28:07.682Z,1.55
2022-12-20T11:29:40.712Z,1.48
2022-12-20T11:31:17.299Z,1.39
2022-12-20T11:32:49.215Z,1.30
2022-12-20T11:34:20.978Z,1.55
2022-12-20T11:36:12.414Z,1.81
2022-12-20T11:38:09.427Z,1.60
2022-12-20T11:39:41.639Z,1.76
2022-12-20T11:41:13.115Z,1.57
2022-12-20T11:42:44.448Z,1.66
2022-12-20T11:44:25.429Z,1.64
2022-12-20T11:46:36.663Z,1.89
2022-12-20T11:48:19.105Z,1.62
2022-12-20T11:50:00.830Z,1.74
2022-12-20T11:51:32.229Z,1.89
2022-12-20T11:53:03.663Z,1.57
2022-12-20T11:54:57.735Z,1.58
2022-12-20T11:56:29.899Z,1.59
2022-12-20T11:58:22.745Z,1.46
2022-12-20T12:00:00.827Z,1.68
2022-12-20T12:01:38.581Z,1.73
2022-12-20T12:03:21.348Z,1.72
2022-12-20T12:05:03.365Z,1.67
2022-12-20T12:06:34.961Z,1.79
2022-12-20T12:09:14.771Z,1.61
2022-12-20T12:12:09.257Z,1.51
2022-12-20T12:13:41.306Z,1.70
2022-12-20T12:15:16.120Z,1.97
2022-12-20T12:16:58.275Z,1.93
2022-12-20T12:18:29.746Z,1.88
2022-12-20T12:20:39.059Z,1.71
2022-12-20T12:22:20.472Z,1.83
2022-12-20T12:24:40.733Z,1.69
2022-12-20T12:26:12.655Z,1.61
2022-12-20T12:29:49.862Z,1.66
2022-12-20T12:31:47.011Z,1.68
2022-12-20T12:33:24.396Z,1.69
2022-12-20T12:34:57.334Z,1.71
2022-12-20T12:37:03.086Z,1.75
2022-12-20T12:39:01.928Z,1.79
2022-12-20T12:41:08.579Z,1.73
2022-12-20T12:42:55.373Z,1.93
2022-12-20T12:44:27.483Z,1.60
2022-12-20T12:46:26.718Z,1.63
2022-12-20T12:47:58.358Z,1.98
2022-12-20T12:49:37.537Z,1.78
2022-12-20T12:51:20.280Z,1.64
2022-12-20T12:53:15.773Z,1.66
2022-12-20T12:54:47.851Z,1.76
2022-12-20T12:57:10.255Z,1.71
2022-12-20T12:58:48.758Z,1.60
2022-12-20T13:00:20.800Z,1.76
2022-12-20T13:01:52.623Z,1.68
2022-12-20T13:03:24.255Z,2.16
2022-12-20T13:04:56.016Z,2.00
2022-12-20T13:06:27.582Z,1.88
2022-12-20T13:07:59.575Z,1.74
2022-12-20T13:11:52.325Z,1.98
2022-12-20T13:13:29.715Z,1.98
2022-12-20T13:15:11.132Z,1.62
2022-12-20T13:17:19.387Z,1.78
2022-12-20T13:18:55.692Z,1.96
2022-12-20T13:20:37.230Z,1.90
2022-12-20T13:22:08.589Z,1.80
2022-12-20T13:24:01.395Z,1.52
2022-12-20T13:25:33.046Z,1.71
2022-12-20T13:27:04.479Z,1.87
2022-12-20T13:28:40.916Z,2.00
2022-12-20T13:30:12.441Z,1.98
2022-12-20T13:31:45.432Z,1.90
2022-12-20T13:33:20.069Z,1.78
2022-12-20T13:34:51.434Z,1.98
2022-12-20T13:36:23.008Z,1.86
2022-12-20T13:37:56.530Z,1.81
2022-12-20T13:39:28.093Z,1.76
2022-12-20T13:40:59.729Z,2.13
2022-12-20T13:42:31.087Z,1.90
2022-12-20T13:44:02.717Z,2.07
2022-12-20T13:45:54.091Z,1.99
2022-12-20T13:47:51.040Z,1.76
2022-12-20T13:49:22.800Z,2.20
2022-12-20T13:50:54.264Z,2.14
2022-12-20T13:52:26.340Z,2.16
2022-12-20T13:54:08.652Z,2.08
2022-12-20T13:55:50.202Z,2.33
2022-12-20T13:57:23.348Z,1.78
2022-12-20T13:58:54.866Z,1.77
2022-12-20T14:00:26.379Z,1.81
2022-12-20T14:02:34.385Z,1.83
2022-12-20T14:04:06.192Z,1.84
2022-12-20T14:05:38.078Z,2.20
2022-12-20T14:07:09.639Z,2.11
2022-12-20T14:08:41.110Z,2.06
2022-12-20T14:11:06.683Z,2.34
2022-12-20T14:12:43.301Z,1.94
2022-12-20T14:14:35.172Z,2.00
2022-12-20T14:16:47.540Z,2.05
2022-12-20T14:18:25.132Z,1.88
2022-12-20T14:19:56.543Z,2.02
2022-12-20T14:23:30.661Z,2.05
2022-12-20T14:25:24.447Z,1.95
2022-12-20T14:27:17.872Z,4.60
2022-12-20T14:29:16.175Z,2.15
2022-12-20T14:31:05.050Z,1.86
2022-12-20T14:32:36.774Z,1.82
2022-12-20T14:34:25.977Z,1.72
2022-12-20T14:36:10.907Z,1.78
2022-12-20T14:37:57.405Z,2.02
2022-12-20T14:39:54.275Z,2.21
2022-12-20T14:41:25.885Z,2.10
2022-12-20T14:42:57.230Z,2.08
2022-12-20T14:44:28.682Z,2.12
2022-12-20T14:46:29.268Z,2.37
2022-12-20T14:48:00.769Z,2.36
2022-12-20T14:49:38.187Z,2.71
2022-12-20T14:51:10.232Z,2.36
2022-12-20T14:52:52.768Z,2.65
2022-12-20T14:55:07.070Z,2.66
2022-12-20T14:56:40.813Z,2.31
2022-12-20T14:58:45.176Z,2.56
2022-12-20T15:00:19.740Z,2.87
2022-12-20T15:02:09.083Z,2.60
2022-12-20T15:03:41.199Z,2.70
2022-12-20T15:05:26.270Z,2.62
2022-12-20T15:07:57.638Z,2.64
2022-12-20T15:10:34.460Z,2.78
2022-12-20T15:12:06.444Z,2.85
2022-12-20T15:14:16.024Z,2.58
2022-12-20T15:16:03.343Z,2.66
2022-12-20T15:17:35.300Z,2.70
2022-12-20T15:19:07.169Z,2.53
2022-12-20T15:20:39.158Z,2.37
2022-12-20T15:22:11.065Z,2.55
2022-12-20T15:23:43.417Z,2.64
2022-12-20T15:25:15.310Z,2.80
2022-12-20T15:26:47.193Z,2.72
2022-12-20T15:28:19.309Z,2.78
2022-12-20T15:29:51.297Z,2.91
2022-12-20T15:31:27.356Z,2.92
2022-12-20T15:33:03.252Z,2.82
2022-12-20T15:34:35.005Z,3.02
2022-12-20T15:36:06.886Z,2.83
2022-12-20T15:39:31.066Z,2.90
2022-12-20T15:41:03.924Z,2.79
2022-12-20T15:42:36.199Z,2.92
2022-12-20T15:44:07.680Z,2.84
2022-12-20T15:45:39.242Z,2.85
2022-12-20T15:47:10.888Z,2.90
2022-12-20T15:48:42.430Z,2.90
2022-12-20T15:50:47.554Z,2.96
2022-12-20T15:52:41.827Z,2.93
2022-12-20T15:54:13.477Z,3.09
2022-12-20T15:55:45.076Z,2.99
2022-12-20T15:57:16.434Z,3.11
2022-12-20T15:58:48.212Z,3.08
2022-12-20T16:00:19.818Z,3.23
2022-12-20T16:01:51.919Z,2.96
2022-12-20T16:03:23.876Z,2.93
2022-12-20T16:04:55.691Z,3.02
2022-12-20T16:06:27.454Z,2.71
2022-12-20T16:07:59.482Z,2.81
2022-12-20T16:09:36.910Z,3.09
2022-12-20T16:11:08.699Z,3.07
2022-12-20T16:12:40.275Z,2.88
2022-12-20T16:14:12.250Z,2.67
2022-12-20T16:15:45.072Z,2.73
2022-12-20T16:17:16.769Z,2.81
2022-12-20T16:18:48.480Z,4.03
2022-12-20T16:20:25.583Z,2.88
2022-12-20T16:22:02.110Z,3.17
2022-12-20T16:23:33.441Z,2.91
2022-12-20T16:25:04.827Z,2.73
2022-12-20T16:26:36.092Z,2.59
2022-12-20T16:28:07.427Z,2.93
2022-12-20T16:29:43.833Z,2.31
2022-12-20T16:31:15.542Z,2.77
2022-12-20T16:32:47.155Z,2.42
2022-12-20T16:34:18.534Z,2.36
2022-12-20T16:35:49.891Z,2.60
2022-12-20T16:37:21.215Z,2.50
2022-12-20T16:38:52.545Z,2.54
2022-12-20T16:40:24.355Z,2.56
2022-12-20T16:41:55.738Z,2.44
2022-12-20T16:43:27.023Z,2.32
2022-12-20T16:44:58.438Z,2.42
2022-12-20T16:46:29.887Z,2.44
2022-12-20T16:48:01.179Z,2.37
2022-12-20T16:49:32.529Z,2.29
2022-12-20T16:51:08.804Z,2.74
2022-12-20T16:52:40.497Z,2.68
2022-12-20T16:54:20.289Z,2.36
2022-12-20T16:56:25.016Z,2.37
2022-12-20T16:57:56.889Z,2.24
2022-12-20T16:59:28.302Z,2.36
2022-12-20T17:00:59.775Z,2.45
2022-12-20T17:02:31.683Z,2.53
2022-12-20T17:04:05.153Z,2.54
2022-12-20T17:05:46.689Z,2.59
2022-12-20T17:07:18.171Z,2.43
2022-12-20T17:08:52.776Z,2.56
2022-12-20T17:10:29.276Z,2.57
2022-12-20T17:12:00.778Z,2.28
2022-12-20T17:13:32.310Z,2.49
2022-12-20T17:15:04.007Z,2.81
2022-12-20T17:16:35.622Z,2.35
2022-12-20T17:18:07.295Z,2.66
2022-12-20T17:19:53.676Z,2.63
2022-12-20T17:21:25.242Z,2.58
2022-12-20T17:23:50.060Z,2.71
2022-12-20T17:25:22.049Z,2.56
2022-12-20T17:26:53.432Z,2.57
2022-12-20T17:28:47.829Z,2.77
2022-12-20T17:30:24.593Z,2.67
2022-12-20T17:31:56.424Z,2.78
2022-12-20T17:33:28.076Z,2.83
2022-12-20T17:35:36.454Z,2.82
2022-12-20T17:37:08.197Z,2.90
2022-12-20T17:38:40.032Z,2.67
2022-12-20T17:40:12.166Z,2.75
2022-12-20T17:41:44.311Z,2.54
2022-12-20T17:43:21.325Z,2.71
2022-12-20T17:44:58.176Z,2.84
2022-12-20T17:46:29.878Z,3.01
2022-12-20T17:48:01.654Z,2.78
2022-12-20T17:49:33.480Z,2.81
2022-12-20T17:51:05.381Z,2.71
2022-12-20T17:52:37.047Z,2.53
2022-12-20T17:54:08.603Z,2.65
2022-12-20T17:56:12.037Z,2.54
2022-12-20T17:57:44.168Z,2.65
2022-12-20T17:59:15.799Z,2.69
2022-12-20T18:00:47.578Z,2.38
2022-12-20T18:02:19.961Z,2.74
2022-12-20T18:04:03.945Z,2.42
2022-12-20T18:05:37.286Z,2.32
2022-12-20T18:07:09.459Z,2.27
2022-12-20T18:08:41.467Z,2.39
2022-12-20T18:10:13.298Z,2.50
2022-12-20T18:11:45.319Z,2.63
2022-12-20T18:13:17.007Z,2.28
2022-12-20T18:14:48.828Z,2.26
2022-12-20T18:16:20.505Z,2.23
2022-12-20T18:17:56.966Z,2.39
2022-12-20T18:19:28.497Z,2.28
2022-12-20T18:20:59.951Z,2.44
2022-12-20T18:22:36.517Z,2.46
2022-12-20T18:24:07.918Z,2.38
2022-12-20T18:25:39.383Z,2.17
2022-12-20T18:27:30.529Z,2.06
2022-12-20T18:29:02.889Z,2.18
2022-12-20T18:30:34.660Z,1.97
2022-12-20T18:32:06.090Z,2.21
2022-12-20T18:33:37.607Z,2.50
2022-12-20T18:35:09.290Z,2.38
2022-12-20T18:36:51.697Z,2.46
2022-12-20T18:38:23.184Z,2.44
2022-12-20T18:40:53.214Z,2.37
2022-12-20T18:42:25.276Z,2.85
2022-12-20T18:43:57.215Z,3.25
2022-12-20T18:45:29.087Z,3.06
2022-12-20T18:47:01.843Z,2.74
2022-12-20T18:48:33.448Z,2.50
2022-12-20T18:50:04.906Z,2.53
2022-12-20T18:51:42.079Z,2.57
2022-12-20T18:53:13.483Z,2.56
2022-12-20T18:54:45.577Z,2.68
2022-12-20T18:56:17.472Z,2.62
2022-12-20T18:57:49.241Z,2.71
2022-12-20T18:59:20.734Z,2.78
2022-12-20T19:01:32.978Z,2.99
2022-12-20T19:03:04.747Z,2.86
2022-12-20T19:04:36.334Z,2.58
2022-12-20T19:06:07.647Z,3.19
2022-12-20T19:07:39.341Z,2.99
2022-12-20T19:09:10.988Z,2.82
2022-12-20T19:11:16.682Z,2.68
2022-12-20T19:12:53.580Z,2.71
2022-12-20T19:14:26.325Z,2.72
2022-12-20T19:15:59.062Z,2.78
2022-12-20T19:17:35.355Z,3.02
2022-12-20T19:19:06.821Z,2.84
2022-12-20T19:20:38.483Z,3.00
2022-12-20T19:22:09.892Z,3.05
2022-12-20T19:23:46.259Z,2.75
2022-12-20T19:25:17.893Z,2.72
2022-12-20T19:26:49.380Z,2.83
2022-12-20T19:28:20.808Z,2.90
2022-12-20T19:29:52.238Z,3.03
2022-12-20T19:34:29.846Z,3.63
2022-12-20T19:36:01.731Z,2.96
2022-12-20T19:37:37.453Z,3.18
2022-12-20T19:39:10.683Z,2.97
2022-12-20T19:41:03.424Z,3.05
2022-12-20T19:42:34.980Z,3.06
2022-12-20T19:44:07.436Z,3.28
2022-12-20T19:46:01.490Z,3.16
2022-12-20T19:47:33.062Z,3.10
2022-12-20T19:49:04.638Z,3.21
2022-12-20T19:50:36.458Z,3.43
2022-12-20T19:52:08.333Z,3.91
2022-12-20T19:53:40.149Z,3.93
2022-12-20T19:55:12.786Z,3.36
2022-12-20T19:57:05.474Z,3.30
2022-12-20T19:58:37.609Z,3.37
2022-12-20T20:00:10.312Z,3.47
2022-12-20T20:01:42.373Z,3.46
2022-12-20T20:03:14.315Z,3.33
2022-12-20T20:04:46.429Z,3.41
2022-12-20T20:06:18.232Z,3.46
2022-12-20T20:07:50.019Z,3.55
2022-12-20T20:09:22.362Z,3.47
2022-12-20T20:10:54.333Z,3.15
2022-12-20T20:12:26.156Z,3.70
2022-12-20T20:13:58.360Z,3.71
2022-12-20T20:15:35.288Z,4.28
2022-12-20T20:17:06.863Z,3.84
2022-12-20T20:18:38.547Z,3.33
2022-12-20T20:20:10.333Z,3.58
2022-12-20T20:21:42.019Z,3.57
2022-12-20T20:23:13.523Z,3.45
2022-12-20T20:24:45.265Z,3.91
2022-12-20T20:26:18.114Z,3.45
2022-12-20T20:27:49.702Z,3.87
2022-12-20T20:29:41.125Z,3.85
2022-12-20T20:31:47.115Z,4.43
2022-12-20T20:33:19.059Z,4.73
2022-12-20T20:34:50.902Z,3.94
2022-12-20T20:36:22.879Z,3.94
2022-12-20T20:37:55.076Z,4.26
2022-12-20T20:39:26.959Z,4.20
2022-12-20T20:40:59.092Z,3.95
2022-12-20T20:42:31.213Z,4.12
2022-12-20T20:44:03.246Z,4.28
2022-12-20T20:45:35.565Z,4.33
2022-12-20T20:47:12.171Z,3.95
2022-12-20T20:48:54.031Z,3.92
2022-12-20T20:50:25.710Z,4.03
2022-12-20T20:52:08.692Z,4.23
2022-12-20T20:53:46.533Z,4.12
2022-12-20T20:55:18.155Z,3.63
2022-12-20T20:56:49.987Z,3.79
2022-12-20T20:58:21.435Z,3.94
2022-12-20T20:59:53.169Z,3.64
2022-12-20T21:01:24.993Z,3.29
2022-12-20T21:02:57.345Z,3.75
2022-12-20T21:04:29.987Z,3.74
2022-12-20T21:06:38.672Z,3.25
2022-12-20T21:08:23.724Z,3.22
2022-12-20T21:09:55.065Z,3.44
2022-12-20T21:11:26.597Z,3.70
2022-12-20T21:13:59.826Z,3.42
2022-12-20T21:15:31.661Z,3.39
2022-12-20T21:17:08.776Z,3.15
2022-12-20T21:18:40.773Z,3.23
2022-12-20T21:20:12.324Z,3.02
2022-12-20T21:21:43.593Z,3.41
2022-12-20T21:23:33.641Z,3.20
2022-12-20T21:25:45.633Z,2.96
2022-12-20T21:27:36.032Z,2.94
2022-12-20T21:29:07.656Z,3.01
2022-12-20T21:30:38.984Z,3.27
2022-12-20T21:32:10.593Z,2.65
2022-12-20T21:34:12.195Z,4.35
2022-12-20T21:35:48.281Z,2.94
2022-12-20T21:37:23.821Z,2.69
2022-12-20T21:38:55.719Z,2.69